Aviation Digital Data Service (ADDS)

Output produced by TAFs form (2145 UTC 28 July 2015)
found at http://aviationweather.gov/adds/tafs/
 
KHOB 282136Z 2822/2918 12011G21KT P6SM SCT090 SCT250 
     FM290200 17005KT P6SM SCT200 
     FM291200 13006KT P6SM FEW250 
     FM291600 12010G20KT P6SM SCT040 SCT250